»·PEaware :: N715MT KONT-KTOA

N715MT :: KONT-KTOA

FLIGHT INFORMATION

Flight Status: Arrived
Operator: Privately registered:
United States
More flights under this callsign
Pilot: Anonymous 17878 (17878)
Aircraft: CESSNA 172 SKYHAWK
(C172)
More flights by this aircraft type
Origin: KONT Ontario Intl
United States
Destination: KTOA Zamperini
United States
More flights between these airports :: More routes between these airports
Route: PDZ PDZ270/015 DOWDD V394 SLI
File this flight plan on PilotEdge
Remarks:
Altitude:
(Current/Filed)
4,000ft
Speed:
(Current/Filed)
110kts
Departed: 10-Oct-18 08:57 PM
Arrived: 10-Oct-18 09:29 PM
Distance/Time
Traveled:
40nm/0:31
Distance/Time
To Go:
Arrived

Flight Plot

Page will automatically refresh every two minutes.

Flight plan parsing failed; only flown route is shown


Map Options




Map Legend


Flown Route
Filed Route
Departure Airport
Arrival Airport
Navaid (VOR, NDB)
Fix

Horizontal Profiles

Position Reports

Time Latitude Longitude Heading Altitude Ground
Speed
10-Oct-18 20:30 34.052638 -117.600636 42 947ft 0kts
10-Oct-18 20:31 34.052638 -117.600636 42 947ft 0kts
10-Oct-18 20:32 34.052638 -117.600636 42 947ft 0kts
10-Oct-18 20:33 34.052638 -117.600636 42 947ft 0kts
10-Oct-18 20:34 34.052638 -117.600636 42 947ft 0kts
10-Oct-18 20:35 34.052638 -117.600636 42 947ft 0kts
10-Oct-18 20:36 34.052638 -117.600636 42 947ft 0kts
10-Oct-18 20:37 34.052638 -117.600636 42 947ft 0kts
10-Oct-18 20:38 34.052638 -117.600636 42 947ft 0kts
10-Oct-18 20:39 34.052638 -117.600636 42 947ft 0kts
10-Oct-18 20:40 34.052638 -117.600636 42 947ft 0kts
10-Oct-18 20:41 34.052638 -117.600636 42 947ft 0kts
10-Oct-18 20:42 34.052638 -117.600636 42 947ft 0kts
10-Oct-18 20:43 34.052638 -117.600636 42 947ft 0kts
10-Oct-18 20:44 34.052638 -117.600636 42 947ft 0kts
10-Oct-18 20:45 34.052638 -117.600636 42 947ft 0kts
10-Oct-18 20:46 34.052638 -117.600636 42 947ft 0kts
10-Oct-18 20:47 34.052638 -117.600636 42 947ft 0kts
10-Oct-18 20:48 34.052638 -117.600636 42 947ft 0kts
10-Oct-18 20:49 34.052638 -117.600636 42 947ft 0kts
10-Oct-18 20:50 34.052638 -117.600636 42 947ft 0kts
10-Oct-18 20:51 34.052638 -117.600636 42 947ft 0kts
10-Oct-18 20:52 34.052613 -117.601028 238 947ft 0kts
10-Oct-18 20:53 34.053690 -117.602304 32 947ft 6kts
10-Oct-18 20:54 34.053846 -117.594700 82 947ft 26kts
10-Oct-18 20:55 34.053864 -117.586757 90 947ft 21kts
10-Oct-18 20:56 34.054110 -117.582389 8 947ft 0kts
10-Oct-18 20:57 34.054110 -117.582389 8 947ft 0kts
10-Oct-18 20:58 34.054110 -117.582389 8 947ft 0kts
10-Oct-18 20:59 34.054966 -117.584612 266 947ft 47kts
10-Oct-18 21:00 34.056303 -117.606398 270 1629ft 67kts
10-Oct-18 21:01 34.058029 -117.628809 268 2355ft 68kts
10-Oct-18 21:02 34.059081 -117.651704 268 3044ft 69kts
10-Oct-18 21:03 34.052583 -117.672930 242 3688ft 70kts
10-Oct-18 21:04 34.042381 -117.696513 243 3990ft 101kts
10-Oct-18 21:05 34.029682 -117.726920 244 3988ft 101kts
10-Oct-18 21:06 34.016924 -117.757279 244 3989ft 102kts
10-Oct-18 21:07 34.004051 -117.787827 244 3989ft 102kts
10-Oct-18 21:08 33.991059 -117.818642 244 3989ft 103kts
10-Oct-18 21:09 33.968872 -117.839796 206 3987ft 107kts
10-Oct-18 21:10 33.941895 -117.855004 225 3983ft 106kts
10-Oct-18 21:11 33.921245 -117.880566 228 3982ft 106kts
10-Oct-18 21:12 33.900860 -117.906331 228 3982ft 107kts
10-Oct-18 21:13 33.880289 -117.932347 228 3983ft 108kts
10-Oct-18 21:14 33.859543 -117.958569 228 3984ft 108kts
10-Oct-18 21:15 33.838830 -117.984695 228 3986ft 108kts
10-Oct-18 21:16 33.818074 -118.010871 228 3987ft 108kts
10-Oct-18 21:17 33.797424 -118.036910 228 3997ft 107kts
10-Oct-18 21:18 33.772624 -118.059103 201 3402ft 120kts
10-Oct-18 21:19 33.742174 -118.072382 201 2502ft 116kts
10-Oct-18 21:20 33.713747 -118.084891 201 2000ft 98kts
10-Oct-18 21:21 33.684342 -118.097890 201 2000ft 116kts
10-Oct-18 21:22 33.672038 -118.127907 271 2003ft 113kts
10-Oct-18 21:23 33.680706 -118.159989 317 2002ft 92kts
10-Oct-18 21:24 33.700995 -118.185409 310 2006ft 110kts
10-Oct-18 21:25 33.720172 -118.213446 308 2007ft 107kts
10-Oct-18 21:26 33.738402 -118.240930 307 2011ft 103kts
10-Oct-18 21:27 33.754900 -118.265483 308 1798ft 94kts
10-Oct-18 21:28 33.770756 -118.289364 309 1217ft 89kts
10-Oct-18 21:29 33.786112 -118.312556 308 657ft 88kts
10-Oct-18 21:30 33.800312 -118.333939 307 141ft 62kts
10-Oct-18 21:31 33.805374 -118.342060 287 107ft 21kts
10-Oct-18 21:32 33.806077 -118.344531 289 107ft 0kts
10-Oct-18 21:33 33.804197 -118.345052 129 107ft 15kts
10-Oct-18 21:34 33.803332 -118.344089 224 107ft 0kts
10-Oct-18 21:35 33.803330 -118.344099 265 107ft 0kts

Navigation Log

Ident Type
Flight plan parsing failed, navigation log unavailable